createdAt,value
2023-05-16T00:02:48.631Z,5.32
2023-05-16T00:12:53.880Z,5.32
2023-05-16T00:22:56.396Z,4.72
2023-05-16T00:32:58.434Z,5.07
2023-05-16T00:43:05.378Z,5.80
2023-05-16T01:03:12.204Z,6.82
2023-05-16T01:13:58.492Z,5.93
2023-05-16T01:24:16.821Z,6.47
2023-05-16T01:34:18.989Z,6.22
2023-05-16T01:44:36.487Z,6.10
2023-05-16T01:54:41.836Z,6.68
2023-05-16T02:04:44.796Z,5.93
2023-05-16T02:14:46.697Z,6.28
2023-05-16T02:24:48.656Z,6.60
2023-05-16T02:34:50.698Z,7.22
2023-05-16T02:44:53.654Z,6.13
2023-05-16T02:55:09.814Z,6.93
2023-05-16T03:05:21.573Z,6.70
2023-05-16T03:15:23.460Z,6.28
2023-05-16T03:25:25.824Z,6.80
2023-05-16T03:35:33.484Z,6.47
2023-05-16T03:45:37.426Z,6.97
2023-05-16T03:55:39.291Z,6.72
2023-05-16T04:05:52.668Z,7.28
2023-05-16T04:15:55.658Z,7.85
2023-05-16T04:25:57.534Z,6.70
2023-05-16T04:36:00.511Z,5.25
2023-05-16T04:46:10.835Z,5.90
2023-05-16T04:56:12.800Z,6.10
2023-05-16T05:06:16.741Z,6.72
2023-05-16T05:16:19.675Z,7.75
2023-05-16T05:26:23.680Z,8.68
2023-05-16T05:36:31.361Z,6.20
2023-05-16T05:46:34.097Z,5.70
2023-05-16T05:56:36.534Z,5.75
2023-05-16T06:06:38.647Z,6.20
2023-05-16T06:16:40.830Z,8.18
2023-05-16T06:26:44.690Z,8.40
2023-05-16T06:36:46.661Z,9.57
2023-05-16T06:46:54.883Z,15.98
2023-05-16T06:56:59.879Z,8.43
2023-05-16T07:07:02.875Z,7.13
2023-05-16T07:17:05.171Z,6.10
2023-05-16T07:27:08.408Z,5.90
2023-05-16T07:37:13.185Z,4.93
2023-05-16T07:47:15.136Z,3.70
2023-05-16T07:57:19.337Z,3.33
2023-05-16T08:07:22.340Z,4.38
2023-05-16T08:17:29.364Z,5.07
2023-05-16T08:27:57.394Z,3.90
2023-05-16T08:37:59.376Z,5.97
2023-05-16T08:48:06.471Z,4.05
2023-05-16T08:58:11.362Z,6.03
2023-05-16T09:08:51.254Z,4.05
2023-05-16T09:19:02.131Z,2.40
2023-05-16T09:29:14.343Z,2.60
2023-05-16T09:39:16.410Z,2.65
2023-05-16T09:49:18.614Z,2.45
2023-05-16T09:59:24.974Z,2.08
2023-05-16T10:09:44.345Z,2.63
2023-05-16T10:19:56.234Z,1.83
2023-05-16T10:29:58.981Z,1.52
2023-05-16T10:40:02.443Z,2.10
2023-05-16T10:50:04.705Z,1.83
2023-05-16T11:00:08.637Z,1.33
2023-05-16T11:10:17.147Z,1.30
2023-05-16T11:20:36.340Z,1.88
2023-05-16T11:40:52.507Z,1.77
2023-05-16T11:50:55.391Z,1.42
2023-05-16T12:01:05.272Z,2.33
2023-05-16T12:11:07.612Z,1.95
2023-05-16T12:21:11.704Z,1.80
2023-05-16T12:31:31.670Z,2.78
2023-05-16T12:41:41.871Z,1.63
2023-05-16T12:51:50.534Z,1.45
2023-05-16T13:01:52.600Z,0.85
2023-05-16T13:11:56.774Z,2.28
2023-05-16T13:21:58.741Z,2.50
2023-05-16T13:32:07.868Z,0.80
2023-05-16T13:42:11.314Z,0.52
2023-05-16T13:52:37.840Z,1.35
2023-05-16T14:02:41.414Z,1.30
2023-05-16T14:13:08.917Z,1.60
2023-05-16T14:23:10.986Z,0.60
2023-05-16T14:33:13.106Z,1.10
2023-05-16T14:43:17.683Z,1.67
2023-05-16T14:53:21.825Z,0.93
2023-05-16T15:03:53.620Z,0.63
2023-05-16T15:14:16.968Z,1.48
2023-05-16T15:24:19.116Z,1.23
2023-05-16T15:34:21.304Z,1.17
2023-05-16T15:44:23.244Z,1.55
2023-05-16T15:54:25.205Z,1.15
2023-05-16T16:04:33.207Z,1.08
2023-05-16T16:14:35.412Z,1.77
2023-05-16T16:24:37.540Z,0.82
2023-05-16T16:34:39.810Z,1.13
2023-05-16T16:44:41.771Z,1.73
2023-05-16T16:54:43.907Z,0.63
2023-05-16T17:04:45.970Z,1.30
2023-05-16T17:15:10.107Z,1.52
2023-05-16T17:25:12.183Z,1.38
2023-05-16T17:35:15.437Z,1.90
2023-05-16T17:45:18.330Z,3.72
2023-05-16T17:55:29.576Z,1.45
2023-05-16T18:05:34.193Z,1.30
2023-05-16T18:15:39.543Z,2.25
2023-05-16T18:25:48.040Z,1.90
2023-05-16T18:35:50.045Z,2.20
2023-05-16T18:46:06.174Z,1.60
2023-05-16T18:56:22.859Z,1.80
2023-05-16T19:06:25.677Z,3.97
2023-05-16T19:16:32.083Z,3.00
2023-05-16T19:26:34.550Z,1.88
2023-05-16T19:36:42.901Z,2.85
2023-05-16T19:46:49.428Z,3.03
2023-05-16T19:56:51.391Z,3.50
2023-05-16T20:06:53.548Z,2.47
2023-05-16T20:16:58.802Z,2.13
2023-05-16T20:27:01.712Z,2.58
2023-05-16T20:37:09.653Z,4.75
2023-05-16T20:47:13.754Z,5.70
2023-05-16T20:57:23.567Z,6.70
2023-05-16T21:17:48.047Z,6.88
2023-05-16T21:28:06.013Z,8.02
2023-05-16T21:38:07.962Z,5.38
2023-05-16T21:48:10.112Z,8.45
2023-05-16T21:58:12.214Z,7.32
2023-05-16T22:08:15.323Z,5.22
2023-05-16T22:18:17.444Z,7.45
2023-05-16T22:28:20.474Z,6.75
2023-05-16T22:38:22.583Z,6.70
2023-05-16T22:48:24.688Z,6.90
2023-05-16T22:58:26.774Z,9.82
2023-05-16T23:08:28.810Z,7.93
2023-05-16T23:18:30.884Z,10.55
2023-05-16T23:28:32.973Z,8.43
2023-05-16T23:38:34.951Z,9.30
2023-05-16T23:48:37.048Z,8.85
2023-05-16T23:58:39.025Z,10.57
